Date,TemperatureHighF,TemperatureAvgF,TemperatureLowF,DewpointHighF,DewpointAvgF,DewpointLowF,HumidityHigh,HumidityAvg,HumidityLow,PressureMaxIn,PressureMinIn,WindSpeedMaxMPH,WindSpeedAvgMPH,GustSpeedMaxMPH,PrecipitationSumIn
2013-1-1,28.2,15.7,4.4,25.9,10.2,-0.3,95,79,61,29.61,29.35,14,5,20,0.00
2013-1-2,0.6,-4.3,-8.7,-5.9,-9.6,-12.9,83,77,73,29.93,29.80,10,3,13,0.00
2013-1-3,9.8,-1.4,-11.7,-1.7,-7.7,-15.7,84,74,55,29.93,29.65,5,1,10,0.00
2013-1-4,29.4,19.0,1.9,25.3,15.2,-2.3,93,85,71,29.66,29.45,16,4,22,0.00
2013-1-5,28.8,20.3,9.4,25.5,14.4,6.3,93,78,65,29.93,29.46,14,6,33,0.00
2013-1-6,27.3,19.4,9.1,26.1,16.9,6.3,95,90,83,29.90,29.61,2,0,5,0.00
2013-1-7,30.3,18.5,12.2,28.7,13.2,7.5,96,80,64,30.06,29.65,6,2,13,0.00
2013-1-8,36.5,24.1,15.2,23.3,17.9,10.6,93,78,57,30.08,29.90,5,2,9,0.04
2013-1-9,32.0,23.7,16.3,24.3,19.9,14.6,95,86,72,30.09,29.65,9,2,19,0.00
2013-1-11,33.0,30.0,20.0,30.8,24.6,17.5,96,81,65,30.17,29.85,9,4,17,0.00
2013-1-12,37.0,34.8,31.8,36.2,33.9,30.8,98,97,96,29.88,29.79,7,3,13,0.21
2013-1-13,42.2,37.4,33.0,41.7,36.8,32.5,98,98,97,29.83,29.62,7,1,11,0.01
2013-1-14,46.7,38.6,30.5,43.5,33.6,23.3,98,83,57,29.95,29.51,10,4,16,0.00
2013-1-15,30.6,28.6,25.6,24.1,20.4,17.1,79,71,61,30.01,29.92,6,3,14,0.00
2013-1-21,15.6,11.4,0.7,8.7,3.6,-4.3,88,72,50,29.74,29.51,9,3,15,0.00
2013-1-22,12.1,8.5,3.2,6.3,3.2,-0.3,89,79,60,29.60,29.49,9,3,18,0.00
2013-1-25,10.3,6.3,-0.9,-3.8,-5.8,-7.6,73,57,47,30.04,29.89,5,2,9,0.00
2013-1-26,7.4,6.3,5.2,2.3,-0.2,-5.2,80,74,58,29.95,29.85,11,6,19,0.00
2013-1-27,13.6,6.8,1.9,2.1,-4.1,-8.9,80,62,36,30.18,29.96,12,5,23,0.00
2013-1-28,14.6,7.2,-1.4,12.2,2.0,-8.0,91,79,61,30.17,29.77,2,0,4,0.00
2013-1-29,25.9,16.5,9.5,21.2,13.3,6.9,92,87,78,29.91,29.78,2,0,5,0.08
2013-1-31,26.5,23.0,20.1,19.7,11.4,6.1,83,61,52,29.14,28.99,17,11,39,0.59
2013-2-1,20.0,13.6,7.2,9.5,5.2,1.2,87,69,54,29.78,29.15,16,6,22,0.00
2013-2-2,18.1,11.3,1.3,13.0,5.7,-2.3,91,78,59,29.87,29.74,8,2,13,0.00
2013-2-3,24.1,15.3,7.1,15.2,8.6,4.3,92,76,45,29.74,29.42,3,1,6,0.01
2013-2-4,19.8,13.8,5.6,12.1,4.1,-7.5,87,66,43,29.59,29.39,15,6,32,0.00
2013-2-5,18.8,8.8,-2.5,6.3,-4.6,-10.4,73,55,36,29.74,29.59,6,1,17,0.00
2013-2-6,27.7,19.4,13.5,21.0,13.1,2.4,87,76,60,29.85,29.60,11,3,27,0.00
2013-2-7,10.9,10.9,10.8,-2.5,-3.5,-5.4,54,52,47,30.21,30.17,1,0,3,0.00
2013-2-8,20.4,15.0,10.5,18.2,10.7,-2.2,92,84,55,30.17,29.62,11,2,21,0.00
2013-2-9,14.2,9.5,3.9,11.6,3.7,-2.3,91,78,65,30.02,29.60,15,8,23,0.00
2013-2-10,25.9,12.6,1.1,4.9,0.6,-5.2,78,60,37,30.17,30.02,4,1,7,0.05
2013-2-11,34.8,23.4,9.9,32.8,18.5,2.3,97,82,46,30.03,29.30,7,2,16,0.00
2013-2-12,34.7,31.7,28.3,31.8,28.1,24.4,92,86,82,29.51,29.28,11,5,23,0.08
2013-2-13,32.1,29.0,26.6,24.2,23.1,20.3,85,79,62,29.53,29.45,9,4,16,0.00
2013-2-18,13.9,11.6,8.6,-5.9,-7.0,-8.8,49,42,36,29.84,29.82,5,2,26,0.00
2013-2-19,37.1,23.0,6.7,29.8,10.1,-6.5,95,60,30,29.86,29.29,14,2,25,0.00
2013-2-20,31.5,24.2,20.0,30.5,19.0,14.6,96,81,65,29.41,29.25,13,5,28,0.00
2013-2-21,21.6,13.9,7.0,17.8,8.6,1.8,87,79,70,30.02,29.42,13,6,25,0.00
2013-2-22,31.6,25.5,18.7,21.0,18.9,15.5,89,76,62,30.13,29.97,9,2,18,0.08
2013-2-23,29.7,28.3,26.9,28.2,24.3,18.9,96,85,70,29.97,29.63,11,4,21,0.00
2013-2-24,32.7,30.2,28.5,30.8,28.4,25.8,96,93,89,29.62,29.47,8,2,17,0.14
2013-2-25,34.2,30.9,29.0,29.1,27.8,26.4,93,88,79,29.93,29.61,10,3,20,0.03
2013-2-26,37.3,32.3,27.9,29.8,27.8,25.8,93,83,67,30.03,29.85,5,1,10,0.02
2013-2-27,35.5,31.4,29.1,31.4,27.7,24.0,95,86,77,29.85,29.45,6,2,13,0.00
2013-2-28,39.8,36.2,32.2,33.9,32.2,29.6,92,85,78,29.31,29.26,4,2,8,0.20
2013-3-1,32.3,30.0,27.2,29.7,26.5,24.1,91,87,80,29.43,29.26,10,5,17,0.00
2013-3-2,30.6,26.7,21.4,25.4,23.3,18.9,92,87,77,29.44,29.39,8,5,18,0.02
2013-3-3,28.6,23.6,20.1,23.9,20.2,17.2,91,86,81,29.41,29.34,11,4,18,0.05
2013-3-4,24.8,21.5,19.8,19.4,17.8,16.1,90,85,78,29.56,29.35,11,6,24,0.00
2013-3-5,36.2,29.0,22.0,28.9,24.3,18.4,89,82,72,29.80,29.56,9,4,16,0.02
2013-3-6,32.4,30.5,28.5,29.6,24.5,20.6,91,78,71,29.90,29.80,10,5,21,0.00
2013-3-7,33.3,29.8,26.8,23.9,22.2,20.6,80,73,66,29.89,29.82,9,6,17,0.00
2013-3-8,39.4,31.3,26.6,23.5,22.1,21.1,83,69,49,29.99,29.80,11,5,20,0.00
2013-3-9,49.1,35.7,22.4,25.0,19.8,14.0,87,56,26,30.02,29.96,9,2,14,0.00
2013-3-10,46.9,36.8,25.3,28.8,23.9,18.8,80,61,39,30.03,29.87,9,4,17,0.00
2013-3-11,44.2,38.3,34.4,31.3,29.4,27.8,82,71,53,29.92,29.75,9,5,15,0.00
2013-3-12,45.1,41.9,35.9,44.3,40.6,33.8,97,95,92,29.50,29.39,11,5,21,0.85
2013-3-13,37.5,34.6,32.4,33.9,30.6,27.5,95,86,69,29.50,29.42,5,2,16,0.01
2013-3-18,29.7,27.0,24.5,12.0,6.1,1.4,54,41,30,29.99,29.87,4,1,7,0.00
2013-3-19,27.9,24.7,20.8,25.7,22.1,8.1,94,90,44,29.87,29.42,10,3,26,0.00
2013-3-20,29.6,23.9,18.2,25.3,19.5,13.8,94,83,64,29.42,29.34,10,4,20,0.02
2013-3-21,33.9,23.5,15.2,17.7,13.6,10.9,86,68,40,29.43,29.32,6,2,9,0.23
2013-3-25,41.6,34.7,21.1,26.1,23.6,19.0,92,65,46,29.47,29.28,10,4,19,0.01
2013-3-26,35.0,32.1,30.1,26.5,24.1,20.9,80,72,56,29.49,29.31,8,4,14,0.00
2013-3-27,39.6,34.8,28.8,31.2,26.7,21.4,92,73,62,29.60,29.45,10,4,18,0.00
2013-3-28,43.5,37.0,31.2,32.8,31.0,29.6,94,80,60,29.73,29.60,10,3,19,0.01
2013-3-29,43.4,38.5,34.7,34.0,31.5,29.3,93,76,62,29.75,29.68,9,4,12,0.02
2013-3-30,45.4,38.3,29.7,30.7,21.3,12.1,81,53,27,29.79,29.73,11,4,16,0.00
2013-3-31,50.3,37.9,23.3,34.8,22.1,14.5,91,55,33,29.79,29.47,13,4,22,0.04
2013-4-1,43.9,35.2,25.9,39.0,30.2,12.5,96,83,53,29.46,29.17,15,5,19,0.18
2013-4-2,28.1,23.4,19.0,19.2,15.0,10.1,90,71,47,29.55,29.41,15,7,28,0.02
2013-4-3,35.4,27.3,22.1,21.7,12.5,7.2,86,55,31,29.84,29.54,16,10,27,0.00
2013-4-4,47.4,35.4,24.9,20.8,13.8,7.3,58,42,26,29.94,29.62,11,5,13,0.00
2013-4-5,46.0,35.7,26.9,30.5,22.1,14.1,82,58,35,29.62,29.44,14,6,17,0.00
2013-4-6,34.7,26.2,19.0,17.2,7.6,2.7,83,47,27,30.00,29.59,17,7,20,0.00
2013-4-7,52.5,38.7,25.3,33.4,20.2,8.3,72,48,31,29.98,29.55,16,6,22,0.00
2013-4-8,51.5,42.3,36.6,35.0,30.7,26.5,80,64,40,29.81,29.57,9,4,12,0.00
2013-4-9,43.7,40.6,37.0,42.4,38.1,28.4,95,91,62,29.74,29.54,8,4,16,0.16
2013-4-10,46.7,40.5,36.3,42.2,38.2,35.3,97,92,79,29.70,29.61,5,1,7,0.14
2013-4-11,39.2,35.3,30.4,36.6,22.3,13.6,95,61,38,29.89,29.60,9,5,16,0.01
2013-4-12,31.1,29.5,27.9,30.0,25.0,16.7,96,84,57,29.89,29.56,6,2,9,0.00
2013-4-13,46.5,35.9,30.3,40.0,33.3,29.3,97,91,65,29.61,29.49,7,1,12,0.55
2013-4-15,54.8,50.3,42.9,34.0,31.0,27.1,69,48,36,30.02,29.95,8,5,10,0.01
2013-4-16,55.2,43.5,39.2,40.4,33.6,32.2,77,68,57,30.00,29.78,15,6,20,0.00
2013-4-17,51.3,45.0,36.1,34.2,29.8,25.9,70,56,41,30.05,29.88,13,6,19,0.00
2013-4-18,55.1,43.3,30.3,35.3,29.4,21.9,82,59,43,30.10,29.70,15,6,23,0.02
2013-4-19,70.1,59.2,49.9,58.9,51.6,34.8,92,77,56,29.70,29.16,18,10,38,0.51
2013-4-20,49.8,41.4,31.7,47.9,31.0,18.3,95,69,43,29.92,29.29,13,7,28,0.20
2013-4-21,43.3,33.3,25.2,22.4,17.6,14.4,79,54,32,30.39,29.92,10,6,18,0.00
2013-4-22,51.4,38.8,24.7,24.1,18.5,14.8,71,46,27,30.45,30.27,9,4,17,0.00
2013-4-23,43.3,37.5,28.0,35.9,28.8,20.5,88,71,48,30.28,29.87,8,3,15,0.00
2013-4-24,71.8,52.8,32.5,45.9,39.4,30.4,96,66,30,29.87,29.35,11,3,17,0.00
2013-4-25,60.4,46.1,36.1,49.1,30.4,22.7,86,56,32,29.99,29.35,16,7,27,0.04
2013-4-26,54.3,42.9,30.3,34.8,28.9,22.4,77,59,36,30.13,29.99,6,2,10,0.00
2013-4-27,58.7,46.4,33.6,37.9,31.2,22.5,91,60,25,30.13,29.99,7,2,13,0.00
2013-4-28,67.5,53.2,35.7,39.0,31.3,24.5,71,46,25,30.01,29.83,8,2,15,0.00
2013-4-29,66.6,55.2,44.7,40.5,36.6,33.4,66,51,32,29.90,29.80,8,4,20,0.00
2013-4-30,70.4,58.3,47.0,46.3,40.8,33.5,83,54,35,29.99,29.88,5,2,20,0.01
2013-5-1,75.7,61.6,44.7,43.2,34.1,29.1,63,37,22,30.12,29.99,5,2,11,0.00
2013-5-2,77.5,62.1,47.2,48.8,39.3,31.3,66,44,28,30.11,29.99,9,3,16,0.00
2013-5-3,68.9,54.5,40.0,42.0,36.6,27.0,73,52,34,30.18,30.01,7,2,11,0.00
2013-5-4,73.6,60.1,43.0,47.5,38.4,29.4,87,49,20,30.04,29.85,8,2,13,0.00
2013-5-5,73.6,59.0,42.2,42.2,35.6,30.6,71,45,21,29.94,29.80,8,3,11,0.00
2013-5-6,74.5,60.9,43.5,45.6,34.5,17.1,74,42,12,29.89,29.73,6,2,9,0.00
2013-5-7,80.5,65.1,47.4,48.5,37.7,29.4,66,39,16,29.81,29.69,6,2,11,0.00
2013-5-8,74.8,63.9,52.9,56.9,52.5,39.6,91,68,37,29.84,29.71,12,3,17,0.00
2013-5-9,68.6,61.0,54.5,59.4,55.3,52.3,95,82,56,29.70,29.53,7,2,43,0.02
2013-5-10,71.5,59.6,53.3,59.4,55.3,52.1,97,87,53,29.63,29.51,6,1,11,0.22
2013-5-11,63.9,58.6,50.7,61.8,56.3,48.0,97,92,88,29.51,29.29,8,3,14,0.12
2013-5-12,60.5,50.9,40.2,48.5,41.2,27.5,95,71,42,29.41,29.25,11,4,19,0.00
2013-5-13,47.2,41.2,35.5,34.3,28.8,24.8,87,62,48,29.72,29.40,9,5,15,0.00
2013-5-14,53.5,42.5,30.4,33.9,27.7,21.5,95,60,32,29.77,29.67,9,3,18,0.01
2013-5-15,61.7,45.5,29.4,47.6,34.4,23.8,94,69,31,29.71,29.32,11,4,20,0.13
2013-5-16,70.0,55.2,43.9,52.5,42.4,33.3,98,68,26,29.53,29.28,15,5,32,0.00
2013-5-17,60.2,50.4,42.7,41.4,39.2,36.6,88,67,43,29.90,29.53,10,5,27,0.00
2013-5-18,68.4,55.2,39.5,47.0,39.8,34.2,92,60,31,29.99,29.90,5,1,8,0.00
2013-5-19,66.3,54.9,44.3,53.2,47.7,40.6,96,78,55,29.98,29.81,6,2,10,0.26
2013-5-20,66.0,56.4,52.0,59.5,54.1,50.7,98,92,75,29.80,29.66,7,2,11,0.04
2013-5-21,71.3,59.3,50.6,64.5,56.2,49.5,98,90,70,29.68,29.55,6,2,10,0.56
2013-5-22,50.4,50.0,49.5,49.3,48.8,48.2,96,96,95,29.61,29.52,5,4,11,0.03
2013-5-24,54.5,46.1,42.5,52.5,44.1,40.8,95,92,88,29.64,29.36,10,6,18,0.48
2013-5-25,42.5,41.5,39.6,40.8,39.9,37.5,95,94,92,29.62,29.56,13,9,21,0.47
2013-6-1,86.6,79.4,71.8,71.7,65.1,58.8,82,63,41,29.54,29.46,9,3,14,0.07
2013-6-2,83.5,70.1,61.0,74.0,65.5,60.1,97,87,56,29.50,29.29,9,2,28,0.40
2013-6-3,69.8,62.0,51.2,62.1,54.7,43.9,97,78,55,29.50,29.42,7,2,14,0.00
2013-6-4,59.5,51.3,45.8,45.0,42.3,39.5,84,72,54,29.78,29.50,9,4,13,0.00
2013-6-5,67.1,55.8,43.0,45.6,40.2,34.7,86,58,35,29.88,29.78,6,2,12,0.00
2013-6-6,67.0,55.8,47.5,52.0,46.8,40.4,94,73,46,29.87,29.76,7,1,8,0.02
2013-6-7,53.1,50.8,48.8,51.4,49.4,46.9,97,95,93,29.77,29.57,3,0,6,0.70
2013-6-8,61.6,55.0,49.3,57.4,52.6,48.5,97,92,85,29.70,29.43,6,3,10,0.32
2013-6-9,70.7,60.9,51.9,57.4,53.6,49.3,97,79,54,29.87,29.69,9,2,12,0.00
2013-6-10,71.4,59.5,48.3,58.4,52.2,47.2,97,79,47,29.89,29.67,6,2,11,0.04
2013-6-11,57.0,54.3,52.8,55.9,53.3,51.0,97,96,93,29.67,29.27,4,1,6,1.10
2013-6-12,63.9,56.4,51.3,53.5,51.4,49.9,97,84,64,29.52,29.27,13,6,24,0.02
2013-6-13,66.8,56.4,46.0,56.8,51.3,44.9,97,84,57,29.50,29.37,4,1,7,0.01
2013-6-14,73.1,62.0,50.7,58.0,51.5,46.4,97,72,41,29.49,29.36,9,3,16,0.00
2013-6-15,70.7,62.4,52.1,47.9,42.8,38.9,63,49,37,29.61,29.49,8,4,14,0.00
2013-6-16,69.0,59.8,50.0,58.9,52.2,43.3,97,77,55,29.58,29.36,7,2,14,0.22
2013-6-17,71.0,60.2,50.4,61.9,55.8,49.6,98,86,60,29.59,29.43,7,2,11,0.13
2013-6-18,65.3,57.3,49.6,53.4,49.5,42.8,94,76,52,29.66,29.57,4,1,6,0.00
2013-6-19,67.8,57.1,45.3,50.0,44.5,41.9,88,65,41,29.85,29.64,6,2,11,0.00
2013-6-20,73.2,59.8,41.7,52.9,45.9,39.5,94,63,35,29.94,29.85,5,2,9,0.00
2013-6-21,78.7,63.8,49.4,58.6,51.0,44.8,89,66,39,29.92,29.87,5,1,10,0.00
2013-6-22,75.4,63.7,56.1,67.6,59.3,51.5,97,86,67,29.89,29.78,8,1,8,0.78
2013-6-23,82.0,68.7,61.6,74.9,66.0,60.7,98,92,68,29.79,29.62,13,1,14,0.76
2013-6-24,85.4,71.1,61.9,71.2,66.0,61.3,98,85,56,29.64,29.53,9,2,11,0.25
2013-6-25,84.3,68.2,60.0,74.0,65.0,59.1,98,90,57,29.57,29.39,13,1,22,0.44
2013-6-26,72.6,66.0,63.4,67.1,64.6,62.7,98,96,78,29.49,29.41,6,0,8,0.23
2013-6-27,79.8,69.6,64.0,72.0,65.8,62.5,97,88,67,29.48,29.39,6,2,8,0.00
2013-6-28,74.8,64.7,58.3,68.9,62.5,57.4,97,93,80,29.39,29.11,5,2,13,0.74
2013-6-29,76.5,68.1,63.1,69.9,64.8,61.5,98,89,74,29.34,29.15,8,2,13,0.21
2013-6-30,80.6,70.6,62.0,67.3,63.4,60.1,97,80,55,29.58,29.34,5,1,8,0.12
2013-7-1,73.0,67.2,61.3,69.1,64.9,59.9,98,92,82,29.73,29.57,6,1,8,0.30
2013-7-2,67.5,64.6,62.3,66.6,63.8,61.4,98,97,96,29.83,29.71,4,1,5,0.64
2013-7-3,81.6,70.1,61.8,74.7,67.0,61.2,98,91,70,29.84,29.77,4,1,6,0.14
2013-7-4,84.5,72.4,65.2,77.0,69.7,64.3,98,92,66,29.85,29.72,8,1,9,0.53
2013-7-5,85.0,74.5,66.2,72.6,68.8,64.4,98,83,60,29.79,29.68,5,2,8,0.01
2013-7-6,81.2,72.2,65.9,70.7,66.2,62.1,97,83,54,29.72,29.64,9,2,15,0.01
2013-7-7,82.7,71.7,62.8,70.2,64.8,59.7,94,80,54,29.68,29.57,4,1,8,0.00
2013-7-8,74.7,69.4,65.9,71.2,67.7,64.7,98,94,85,29.70,29.58,4,0,5,1.04
2013-7-9,80.0,70.6,66.1,72.2,67.4,65.1,98,90,71,29.74,29.66,4,1,6,0.00
2013-7-10,71.3,67.9,65.9,68.7,66.3,64.3,98,95,90,29.68,29.41,6,2,9,0.24
2013-7-11,78.1,69.3,59.8,68.9,63.7,55.9,98,84,58,29.67,29.39,7,2,13,0.07
2013-7-12,79.8,68.0,56.2,65.0,57.6,52.9,92,71,49,29.86,29.67,3,1,6,0.00
2013-7-13,78.7,69.4,56.5,66.7,61.8,54.5,95,78,58,29.96,29.86,5,1,8,0.00
2013-7-14,84.6,73.0,65.4,72.0,67.4,63.2,96,84,60,29.97,29.86,3,0,5,0.00
2013-7-15,85.9,75.7,65.6,72.9,66.3,61.8,98,75,47,29.88,29.77,7,2,12,0.00
2013-7-16,85.0,76.7,67.6,70.4,66.8,64.0,90,72,53,29.85,29.80,7,2,10,0.00
2013-7-17,88.2,75.0,63.8,75.3,67.6,62.3,97,80,49,29.83,29.58,17,2,24,1.48
2013-7-18,85.4,74.2,65.6,74.8,69.2,64.6,98,85,62,29.69,29.58,6,1,11,0.00
2013-7-19,88.9,76.8,66.9,74.4,69.7,64.9,97,80,58,29.58,29.30,16,3,18,0.22
2013-7-20,80.2,72.2,62.9,70.7,64.4,55.3,95,78,52,29.47,29.27,9,3,14,0.13
2013-7-21,75.1,66.2,57.4,61.8,56.8,51.9,92,73,49,29.69,29.47,5,2,8,0.00
2013-7-22,76.1,64.5,51.5,68.0,59.1,49.2,93,83,65,29.70,29.55,4,1,5,0.00
2013-7-23,74.2,66.6,63.3,68.3,64.3,62.1,97,93,79,29.54,29.22,4,1,6,0.43
2013-7-24,66.5,60.4,52.0,64.3,56.4,45.4,98,87,70,29.70,29.23,8,3,14,0.09
2013-7-25,70.2,59.0,44.0,57.6,51.0,42.1,94,76,56,29.81,29.71,6,1,7,0.00
2013-7-26,73.4,63.5,56.1,62.9,56.9,52.2,92,79,64,29.78,29.65,6,2,10,0.00
2013-7-27,78.9,67.6,55.1,65.3,59.4,53.9,97,77,52,29.72,29.63,3,1,5,0.00
2013-7-28,76.0,67.4,60.5,67.6,62.5,57.8,95,85,67,29.67,29.59,5,2,11,0.00
2013-7-29,78.4,68.8,61.7,67.5,61.3,53.3,97,79,44,29.72,29.62,7,2,11,0.13
2013-7-30,72.3,65.0,56.5,58.4,55.4,51.5,92,72,53,29.77,29.71,7,2,12,0.00
2013-7-31,78.1,66.0,53.1,62.4,56.8,51.6,96,74,47,29.80,29.68,4,1,6,0.00
2013-8-1,77.8,64.5,54.6,63.3,59.3,53.2,97,85,57,29.69,29.49,8,2,13,0.07
2013-8-2,74.7,65.9,56.8,64.9,58.3,52.8,98,79,49,29.50,29.43,9,2,16,0.04
2013-8-3,70.3,62.0,54.3,60.4,55.7,52.6,97,81,57,29.50,29.43,10,2,14,0.07
2013-8-4,67.5,59.5,52.6,59.8,54.3,50.6,97,83,63,29.58,29.46,9,3,17,0.15
2013-8-5,65.6,58.0,50.3,52.2,46.3,35.8,91,68,34,29.72,29.57,10,4,20,0.02
2013-8-6,73.0,59.4,45.3,58.1,50.3,44.1,97,74,47,29.81,29.71,3,1,7,0.00
2013-8-7,75.6,64.3,52.4,62.4,56.1,50.4,95,76,55,29.83,29.70,7,2,12,0.00
2013-8-8,78.5,68.7,62.8,72.0,64.6,56.7,95,87,73,29.70,29.61,6,2,9,0.04
2013-8-9,70.5,68.6,66.1,69.6,67.5,64.3,98,96,93,29.63,29.51,5,1,10,0.28
2013-8-30,76.4,70.2,68.0,67.6,66.2,65.2,95,87,73,29.46,29.43,6,0,6,0.16
2013-8-31,73.5,67.9,65.3,69.3,66.2,64.0,98,95,82,29.46,29.42,4,0,7,0.11
2013-9-1,79.9,70.5,64.3,68.5,65.6,62.2,98,86,56,29.53,29.44,2,0,4,0.04
2013-9-2,75.9,68.5,62.3,70.5,66.5,61.4,98,94,82,29.52,29.35,7,1,8,0.47
2013-9-3,71.6,63.4,57.7,63.7,60.2,56.9,98,90,67,29.45,29.35,8,1,8,0.01
2013-9-4,69.8,62.0,56.1,57.4,55.8,49.9,97,81,55,29.58,29.45,10,2,17,0.19
2013-9-5,59.6,53.4,42.9,56.5,44.2,35.3,97,73,45,29.83,29.54,8,3,15,0.03
2013-9-6,64.3,51.3,36.6,47.5,41.0,35.3,97,71,42,29.93,29.74,5,1,10,0.00
2013-9-7,72.4,57.0,45.4,57.3,49.2,43.3,96,77,38,29.74,29.49,4,1,8,0.00
2013-9-8,57.7,52.8,43.5,53.4,46.3,38.0,94,79,55,29.76,29.41,9,3,15,0.13
2013-9-9,67.0,52.1,37.2,51.5,41.8,35.6,96,71,38,29.89,29.75,5,1,9,0.00
2013-9-10,66.5,58.4,50.6,65.3,56.1,47.3,97,92,84,29.78,29.69,4,1,7,0.19
2013-9-11,87.7,75.2,66.0,73.8,68.4,64.8,98,82,53,29.70,29.56,7,3,10,0.07
2013-9-12,78.6,68.9,63.6,72.2,66.2,62.8,98,91,72,29.52,29.30,8,1,20,0.33
2013-9-13,63.5,57.5,51.9,62.9,56.2,49.9,98,95,92,29.49,29.27,6,2,9,0.62
2013-9-14,55.8,51.1,44.4,50.3,48.0,43.1,96,89,78,29.76,29.48,6,2,12,0.02
2013-9-15,65.8,51.4,37.5,53.8,46.4,36.7,98,84,55,29.83,29.69,6,1,8,0.00
2013-9-16,54.4,48.4,36.2,51.5,43.8,33.1,95,84,62,29.99,29.68,9,3,14,0.08
2013-9-17,60.2,47.0,34.7,45.3,39.1,32.8,94,76,49,30.15,29.99,4,1,8,0.00
2013-9-18,68.5,51.3,34.9,51.5,43.7,33.8,97,79,40,30.01,29.81,5,1,7,0.00
2013-9-19,73.8,56.0,42.6,55.6,47.9,41.5,98,78,33,29.84,29.72,5,1,7,0.00
2013-9-20,72.8,61.6,50.5,57.0,53.3,47.7,91,75,56,29.76,29.63,4,2,7,0.00
2013-9-21,70.7,60.9,53.3,60.7,55.2,50.4,95,83,52,29.64,29.29,11,5,17,0.02
2013-9-22,62.0,54.1,45.1,60.4,50.4,40.7,97,88,75,29.53,29.21,11,4,21,0.78
2013-9-23,47.2,44.0,41.5,40.8,38.8,36.4,86,82,75,29.71,29.52,9,5,16,0.00
2013-9-24,54.8,47.1,42.5,44.9,40.6,37.3,89,78,63,29.70,29.59,10,4,16,0.00
2013-9-25,57.0,50.6,46.4,49.9,45.9,43.1,91,84,72,29.70,29.59,6,2,9,0.00
2013-9-26,59.8,50.9,42.9,50.8,45.8,40.7,93,83,67,29.85,29.70,8,3,14,0.00
2013-9-27,67.6,55.8,50.0,52.9,49.0,46.7,91,79,52,29.97,29.85,4,1,6,0.00
2013-9-28,69.7,57.0,45.7,56.3,49.5,44.9,97,78,49,30.05,29.93,3,0,5,0.00
2013-9-29,68.8,55.6,43.3,56.4,48.8,42.2,97,80,51,29.93,29.76,4,1,6,0.00
2013-9-30,69.5,58.3,47.1,54.3,48.0,44.6,94,71,43,29.79,29.66,3,1,4,0.00
2013-10-1,61.0,52.4,45.6,54.5,49.6,44.3,95,90,79,29.67,29.56,0,0,1,0.01
2013-10-2,72.1,59.8,46.8,60.7,52.6,45.9,98,79,55,29.63,29.49,12,3,19,0.00
2013-10-3,69.0,58.7,48.6,51.3,47.3,43.5,83,67,48,29.76,29.63,7,2,10,0.00
2013-10-4,64.7,54.2,43.4,53.4,47.8,41.8,96,80,56,29.80,29.72,2,0,4,0.00
2013-10-5,62.0,55.0,48.5,52.7,46.4,38.9,91,73,59,29.83,29.76,3,0,4,0.00
2013-10-6,53.1,48.7,45.8,47.0,42.6,37.8,95,80,63,29.87,29.79,8,3,16,0.25
2013-10-7,64.8,55.7,48.4,62.9,53.9,46.5,97,94,86,29.79,29.32,13,5,25,0.62
2013-10-8,55.0,47.9,39.1,46.7,38.7,33.9,89,72,46,30.07,29.56,10,4,16,0.00
2013-10-9,60.3,46.2,32.8,43.4,36.6,31.5,96,72,40,30.18,30.05,5,1,8,0.00
2013-10-10,64.1,49.2,35.8,49.2,40.5,34.3,96,74,40,30.05,29.89,3,0,3,0.00
2013-10-11,68.7,54.1,41.5,49.8,43.0,37.6,89,68,44,29.88,29.82,4,1,4,0.00
2013-10-13,59.9,53.4,45.1,50.5,46.8,42.8,93,79,66,30.10,30.02,6,2,8,0.00
2013-10-14,53.1,49.6,46.1,51.2,48.0,43.9,98,94,88,30.04,29.93,5,1,8,0.08
2013-10-15,61.4,53.8,45.9,55.4,50.9,45.1,98,90,77,29.97,29.83,5,1,8,0.00
2013-10-16,60.0,54.1,49.8,52.9,49.4,45.5,94,84,76,29.83,29.53,8,4,14,0.01
2013-10-17,64.5,54.7,47.1,54.5,48.7,44.3,97,81,55,29.53,29.38,10,2,14,0.04
2013-10-18,58.8,51.4,46.6,50.4,45.5,35.7,97,81,61,29.55,29.27,13,4,18,0.49
2013-10-19,59.2,50.2,38.5,47.5,41.5,34.9,88,73,54,29.61,29.37,9,3,17,0.03
2013-10-20,52.3,47.4,40.8,45.4,37.4,31.7,94,70,46,29.67,29.31,14,6,18,0.14
2013-10-21,59.1,47.2,34.0,45.7,38.8,31.4,93,74,56,29.77,29.58,8,2,10,0.00
2013-10-22,51.8,46.8,34.6,46.9,40.3,28.2,91,78,62,29.58,29.33,9,4,16,0.01
2013-10-23,48.3,38.7,29.7,37.4,30.1,26.8,91,72,50,29.45,29.30,6,2,9,0.00
2013-10-24,43.1,36.1,29.2,34.4,29.9,23.7,92,79,54,29.53,29.34,12,4,17,0.07
2013-10-25,38.5,35.1,32.4,32.6,29.7,25.9,93,81,64,29.79,29.53,10,4,13,0.02
2013-10-26,41.6,35.7,28.1,34.3,30.2,24.9,89,81,59,29.79,29.50,8,3,10,0.01
2013-10-27,46.0,38.3,34.2,36.7,31.5,26.3,87,77,57,29.68,29.43,12,4,16,0.00
2013-10-28,43.7,35.5,28.5,36.6,28.1,19.9,89,75,54,30.06,29.68,11,4,17,0.01
2013-10-29,41.4,30.2,21.3,26.4,21.3,18.2,90,71,42,30.15,30.05,5,1,9,0.00
2013-10-30,40.9,32.1,25.4,32.0,26.7,19.0,90,81,69,30.05,29.89,6,1,11,0.00
2013-10-31,53.2,40.2,30.1,52.3,38.5,28.4,97,94,85,29.93,29.38,8,3,12,0.33
2013-11-1,64.3,56.8,47.3,58.5,50.9,40.4,97,82,51,29.38,28.92,14,8,29,0.45
2013-11-2,52.4,45.4,34.6,44.0,39.8,30.0,89,81,67,29.53,29.27,10,3,13,0.01
2013-11-3,34.5,29.3,24.4,30.1,18.8,13.8,85,65,44,30.17,29.53,11,6,16,0.01
2013-11-4,35.9,27.1,19.9,18.7,16.0,13.3,78,63,46,30.38,30.17,7,2,12,0.00
2013-11-5,44.0,33.8,22.8,29.7,22.7,16.1,76,64,50,30.39,30.16,11,3,15,0.00
2013-11-6,54.1,44.3,34.2,42.6,37.3,29.3,89,77,61,30.16,29.60,10,4,14,0.00
2013-11-7,50.8,43.2,32.8,49.6,39.4,25.1,96,86,73,29.59,29.39,13,6,20,0.23
2013-11-8,36.0,31.7,28.0,29.7,25.5,21.9,89,78,69,29.76,29.50,9,5,17,0.01
2013-11-9,36.4,32.2,30.3,28.2,23.0,20.8,88,69,57,29.86,29.67,10,4,13,0.00
2013-11-10,40.7,34.9,30.8,38.3,33.1,28.0,96,93,87,29.67,29.40,15,3,19,0.20
2013-11-11,38.0,33.8,29.9,32.9,28.6,25.9,91,81,69,29.77,29.51,14,5,19,0.00
2013-11-12,36.5,23.7,20.4,31.5,18.4,13.9,91,80,72,29.92,29.54,13,7,21,0.00
2013-11-13,26.9,21.4,16.0,16.9,13.2,10.4,81,71,50,29.99,29.75,13,6,18,0.00
2013-11-14,23.6,22.5,21.7,18.5,17.1,15.3,82,79,76,29.75,29.72,2,1,3,0.00
2013-11-15,47.9,39.0,27.2,30.4,23.4,18.9,81,55,39,29.89,29.77,4,1,5,0.00
2013-11-16,53.6,40.7,31.1,30.7,26.6,22.1,82,59,38,29.99,29.88,3,1,5,0.00
2013-11-17,48.6,41.5,33.5,47.4,36.8,26.8,97,84,62,29.98,29.48,13,4,18,0.11
2013-11-18,54.1,51.4,48.6,52.2,48.9,43.3,96,92,76,29.47,29.11,18,8,23,0.28
2013-11-20,32.9,26.2,19.5,16.4,14.9,12.5,81,63,44,30.35,30.21,9,3,13,0.00
2013-11-21,37.5,27.5,16.1,21.7,15.7,11.3,89,63,38,30.35,30.05,3,1,5,0.00
2013-11-22,37.7,29.9,26.9,34.6,26.3,16.4,97,87,60,30.05,29.48,6,0,7,0.01
2013-11-23,38.8,27.6,16.4,37.9,22.1,12.1,97,80,58,29.61,29.41,17,9,23,0.08
2013-11-24,16.2,13.0,9.8,11.7,6.1,-0.3,86,74,57,29.88,29.47,18,12,29,0.00
2013-11-25,23.6,15.1,4.6,14.8,3.7,-1.6,78,61,42,30.08,29.88,8,3,15,0.00
2013-11-26,30.2,26.7,23.5,27.7,22.3,14.6,96,83,66,29.97,29.74,6,2,10,0.00
2013-11-27,44.5,34.4,27.4,43.7,32.8,24.6,98,94,87,29.74,29.03,12,4,22,0.60
2013-11-28,27.1,18.1,12.1,24.3,11.5,6.2,89,75,59,30.10,29.14,18,8,29,0.00
2013-11-29,19.6,12.1,4.3,9.9,6.3,1.0,90,78,62,30.46,30.09,6,2,10,0.00
2013-11-30,23.5,14.5,2.7,17.1,8.0,-0.3,89,76,58,30.50,30.06,8,3,15,0.00
2013-12-1,32.5,28.1,23.4,29.2,24.3,14.5,96,86,68,30.07,29.76,7,2,9,0.00
2013-12-2,33.7,31.0,28.5,31.8,29.8,27.5,97,95,90,29.76,29.60,1,0,2,0.06
2013-12-3,32.1,31.6,31.1,31.3,30.8,30.3,97,97,96,29.64,29.62,1,0,1,0.00
2013-12-14,5.2,4.4,3.9,2.2,-0.2,-4.2,87,81,67,30.15,29.93,2,0,3,0.00
2013-12-15,21.1,17.0,5.4,17.8,14.2,2.6,93,89,84,29.91,29.22,5,2,10,0.00
2013-12-16,15.0,6.1,-7.1,12.5,-0.8,-12.1,92,73,61,29.93,29.36,13,4,17,0.00
2013-12-17,8.5,-1.3,-13.7,5.2,-5.6,-17.4,88,82,67,29.98,29.77,3,0,4,0.00
2013-12-18,25.3,15.7,7.2,19.0,11.9,4.4,92,85,71,29.76,29.60,6,1,10,0.10
2013-12-19,32.3,25.4,20.0,28.0,22.2,17.8,93,87,79,29.78,29.61,5,1,8,0.00
2013-12-20,35.9,32.1,28.7,34.9,30.0,26.3,97,92,86,29.79,29.57,5,1,7,0.18
2013-12-21,44.4,40.1,35.6,43.3,38.9,34.8,98,95,89,29.59,29.49,5,1,7,0.42
2013-12-22,39.9,35.3,32.5,39.3,34.7,31.7,98,98,97,29.67,29.38,7,1,8,0.53
2013-12-23,35.9,32.9,28.1,35.4,31.9,22.1,98,96,78,29.82,29.64,9,2,12,0.13
2013-12-24,28.0,15.7,2.8,22.2,11.1,-2.9,90,82,74,29.97,29.78,9,4,13,0.00
2013-12-25,12.7,5.2,-2.8,5.1,-1.2,-7.2,83,75,62,30.24,29.97,8,2,11,0.00
2013-12-26,23.2,18.4,12.6,21.1,15.2,4.8,94,87,68,30.14,29.80,7,3,9,0.00
2013-12-27,25.9,22.5,18.9,21.5,18.9,16.9,94,86,73,29.89,29.84,9,2,14,0.01
2013-12-28,32.6,27.0,17.9,29.5,23.8,15.1,94,88,84,29.84,29.67,4,1,5,0.00
2013-12-29,37.4,31.7,26.2,32.3,29.3,25.0,97,91,76,29.70,29.28,6,1,7,0.10
2013-12-30,34.5,16.4,-2.5,33.3,12.7,-7.1,98,85,74,29.90,29.26,12,4,16,0.00
2013-12-31,13.3,3.9,-2.2,9.6,-0.6,-6.5,89,81,64,29.89,29.73,8,1,14,0.00
2014-1-1,13.1,7.2,-3.6,8.0,1.6,-9.0,88,78,65,30.12,29.82,12,4,20,0.00
2014-1-2,2.4,-1.9,-6.1,-0.8,-5.9,-10.9,87,83,78,30.12,29.68,5,3,8,0.00